sensor_id;sensor_type;location;lat;lon;timestamp;temperature;humidity
42145;DHT22;27813;43.516;11.890;2022-08-03T03:24:39;19.20;87.60
42145;DHT22;27813;43.516;11.890;2022-08-03T03:28:45;19.20;87.60
42145;DHT22;27813;43.516;11.890;2022-08-03T03:32:50;19.20;87.50
42145;DHT22;27813;43.516;11.890;2022-08-03T03:36:55;19.20;87.40
42145;DHT22;27813;43.516;11.890;2022-08-03T03:41:00;19.10;87.50
42145;DHT22;27813;43.516;11.890;2022-08-03T03:45:06;19.10;87.70
42145;DHT22;27813;43.516;11.890;2022-08-03T03:49:11;19.00;87.90
42145;DHT22;27813;43.516;11.890;2022-08-03T03:53:16;19.00;87.90
42145;DHT22;27813;43.516;11.890;2022-08-03T03:57:20;19.00;87.70
42145;DHT22;27813;43.516;11.890;2022-08-03T04:01:25;19.00;87.50
42145;DHT22;27813;43.516;11.890;2022-08-03T04:05:30;19.00;87.60
42145;DHT22;27813;43.516;11.890;2022-08-03T04:09:53;18.90;87.70
42145;DHT22;27813;43.516;11.890;2022-08-03T04:14:23;18.80;87.90
42145;DHT22;27813;43.516;11.890;2022-08-03T04:18:30;18.70;88.00
42145;DHT22;27813;43.516;11.890;2022-08-03T04:22:36;18.50;88.20
42145;DHT22;27813;43.516;11.890;2022-08-03T04:26:45;18.50;88.20
42145;DHT22;27813;43.516;11.890;2022-08-03T04:30:56;18.50;88.30
42145;DHT22;27813;43.516;11.890;2022-08-03T04:35:01;18.60;88.50
42145;DHT22;27813;43.516;11.890;2022-08-03T04:39:24;18.90;88.10
42145;DHT22;27813;43.516;11.890;2022-08-03T04:43:31;19.00;87.60
42145;DHT22;27813;43.516;11.890;2022-08-03T04:47:37;19.20;87.70
42145;DHT22;27813;43.516;11.890;2022-08-03T04:51:42;20.20;86.00
42145;DHT22;27813;43.516;11.890;2022-08-03T04:55:46;21.60;82.50
42145;DHT22;27813;43.516;11.890;2022-08-03T04:59:52;22.80;79.50
42145;DHT22;27813;43.516;11.890;2022-08-03T05:04:06;23.80;77.10
42145;DHT22;27813;43.516;11.890;2022-08-03T05:08:11;24.60;74.90
42145;DHT22;27813;43.516;11.890;2022-08-03T05:12:15;25.40;73.40
42145;DHT22;27813;43.516;11.890;2022-08-03T05:16:20;26.00;72.10
42145;DHT22;27813;43.516;11.890;2022-08-03T05:20:28;26.60;70.90
42145;DHT22;27813;43.516;11.890;2022-08-03T05:24:32;27.20;69.80
42145;DHT22;27813;43.516;11.890;2022-08-03T05:28:37;27.60;68.90
42145;DHT22;27813;43.516;11.890;2022-08-03T05:32:53;28.00;68.40
42145;DHT22;27813;43.516;11.890;2022-08-03T05:36:57;28.50;67.30
42145;DHT22;27813;43.516;11.890;2022-08-03T05:41:02;29.00;66.60
42145;DHT22;27813;43.516;11.890;2022-08-03T05:45:26;29.50;65.80
42145;DHT22;27813;43.516;11.890;2022-08-03T05:49:31;30.10;64.90
42145;DHT22;27813;43.516;11.890;2022-08-03T05:53:36;30.70;63.90
42145;DHT22;27813;43.516;11.890;2022-08-03T05:57:41;31.10;63.10
42145;DHT22;27813;43.516;11.890;2022-08-03T06:01:47;31.50;62.30
42145;DHT22;27813;43.516;11.890;2022-08-03T06:05:53;31.80;62.10
42145;DHT22;27813;43.516;11.890;2022-08-03T06:10:04;32.00;61.60
42145;DHT22;27813;43.516;11.890;2022-08-03T06:14:28;32.20;61.10
42145;DHT22;27813;43.516;11.890;2022-08-03T06:18:34;32.60;60.70
42145;DHT22;27813;43.516;11.890;2022-08-03T06:22:38;33.00;60.30
42145;DHT22;27813;43.516;11.890;2022-08-03T06:26:53;33.30;60.10
42145;DHT22;27813;43.516;11.890;2022-08-03T06:30:57;33.80;59.40
42145;DHT22;27813;43.516;11.890;2022-08-03T06:35:03;34.40;58.30
42145;DHT22;27813;43.516;11.890;2022-08-03T06:39:07;34.70;58.30
42145;DHT22;27813;43.516;11.890;2022-08-03T06:43:12;35.20;58.00
42145;DHT22;27813;43.516;11.890;2022-08-03T06:47:18;35.60;57.40
42145;DHT22;27813;43.516;11.890;2022-08-03T06:51:22;36.10;56.60
42145;DHT22;27813;43.516;11.890;2022-08-03T06:55:48;36.10;55.90
42145;DHT22;27813;43.516;11.890;2022-08-03T06:59:57;36.00;54.50
42145;DHT22;27813;43.516;11.890;2022-08-03T07:04:14;34.80;56.40
42145;DHT22;27813;43.516;11.890;2022-08-03T07:08:18;33.10;60.60
42145;DHT22;27813;43.516;11.890;2022-08-03T07:12:37;31.70;63.40
42145;DHT22;27813;43.516;11.890;2022-08-03T07:17:02;30.90;65.30
42145;DHT22;27813;43.516;11.890;2022-08-03T07:21:14;30.30;65.70
42145;DHT22;27813;43.516;11.890;2022-08-03T07:25:19;29.90;65.70
42145;DHT22;27813;43.516;11.890;2022-08-03T07:29:25;29.70;65.50
42145;DHT22;27813;43.516;11.890;2022-08-03T07:33:29;29.60;65.00
42145;DHT22;27813;43.516;11.890;2022-08-03T07:37:36;29.50;64.80
42145;DHT22;27813;43.516;11.890;2022-08-03T07:41:41;29.40;64.80
42145;DHT22;27813;43.516;11.890;2022-08-03T07:45:45;29.30;64.40
42145;DHT22;27813;43.516;11.890;2022-08-03T07:49:50;29.40;63.90
42145;DHT22;27813;43.516;11.890;2022-08-03T07:53:55;29.40;63.00
42145;DHT22;27813;43.516;11.890;2022-08-03T07:58:02;29.50;62.00
42145;DHT22;27813;43.516;11.890;2022-08-03T08:02:08;29.40;60.60
42145;DHT22;27813;43.516;11.890;2022-08-03T08:06:13;29.50;60.10
42145;DHT22;27813;43.516;11.890;2022-08-03T08:10:17;29.50;58.80
42145;DHT22;27813;43.516;11.890;2022-08-03T08:14:22;29.50;57.50
42145;DHT22;27813;43.516;11.890;2022-08-03T08:18:26;29.40;54.40
42145;DHT22;27813;43.516;11.890;2022-08-03T08:22:34;29.30;54.50
42145;DHT22;27813;43.516;11.890;2022-08-03T08:26:39;29.30;53.60
42145;DHT22;27813;43.516;11.890;2022-08-03T08:30:46;29.30;52.00
42145;DHT22;27813;43.516;11.890;2022-08-03T08:34:52;29.30;51.90
42145;DHT22;27813;43.516;11.890;2022-08-03T08:38:57;29.40;51.40
42145;DHT22;27813;43.516;11.890;2022-08-03T08:43:02;29.30;51.50
42145;DHT22;27813;43.516;11.890;2022-08-03T08:47:07;29.30;51.50
42145;DHT22;27813;43.516;11.890;2022-08-03T08:51:18;29.30;50.20
42145;DHT22;27813;43.516;11.890;2022-08-03T08:55:23;29.30;49.90
42145;DHT22;27813;43.516;11.890;2022-08-03T08:59:32;29.30;49.30
42145;DHT22;27813;43.516;11.890;2022-08-03T09:03:53;29.30;48.50
42145;DHT22;27813;43.516;11.890;2022-08-03T09:07:58;29.50;48.30
42145;DHT22;27813;43.516;11.890;2022-08-03T09:12:04;29.40;47.50
42145;DHT22;27813;43.516;11.890;2022-08-03T09:16:29;29.50;47.40
42145;DHT22;27813;43.516;11.890;2022-08-03T09:20:35;29.50;47.40
42145;DHT22;27813;43.516;11.890;2022-08-03T09:25:01;29.50;46.40
42145;DHT22;27813;43.516;11.890;2022-08-03T09:29:26;29.60;46.90
42145;DHT22;27813;43.516;11.890;2022-08-03T09:33:46;29.80;47.10
42145;DHT22;27813;43.516;11.890;2022-08-03T09:38:11;30.10;46.70
42145;DHT22;27813;43.516;11.890;2022-08-03T09:42:19;30.80;46.40
42145;DHT22;27813;43.516;11.890;2022-08-03T09:46:27;31.50;45.70
42145;DHT22;27813;43.516;11.890;2022-08-03T09:50:54;32.50;44.70
42145;DHT22;27813;43.516;11.890;2022-08-03T09:55:11;34.50;41.40
42145;DHT22;27813;43.516;11.890;2022-08-03T09:59:36;36.50;38.50
42145;DHT22;27813;43.516;11.890;2022-08-03T10:03:57;37.50;35.80
42145;DHT22;27813;43.516;11.890;2022-08-03T10:08:14;38.20;34.70
42145;DHT22;27813;43.516;11.890;2022-08-03T10:12:19;38.70;34.00
42145;DHT22;27813;43.516;11.890;2022-08-03T10:16:34;39.10;33.50
42145;DHT22;27813;43.516;11.890;2022-08-03T10:21:09;39.70;32.70
42145;DHT22;27813;43.516;11.890;2022-08-03T10:25:31;40.40;31.40
42145;DHT22;27813;43.516;11.890;2022-08-03T10:29:38;40.60;31.00
42145;DHT22;27813;43.516;11.890;2022-08-03T10:33:49;40.80;30.70
42145;DHT22;27813;43.516;11.890;2022-08-03T10:38:07;41.10;30.20
42145;DHT22;27813;43.516;11.890;2022-08-03T10:42:14;41.50;29.40
42145;DHT22;27813;43.516;11.890;2022-08-03T10:46:29;41.20;28.80
42145;DHT22;27813;43.516;11.890;2022-08-03T10:50:33;40.60;28.00
42145;DHT22;27813;43.516;11.890;2022-08-03T10:54:40;40.40;28.30
42145;DHT22;27813;43.516;11.890;2022-08-03T10:59:09;40.40;28.10
42145;DHT22;27813;43.516;11.890;2022-08-03T11:03:17;40.50;28.10
42145;DHT22;27813;43.516;11.890;2022-08-03T11:07:23;40.70;27.50
42145;DHT22;27813;43.516;11.890;2022-08-03T11:11:28;40.60;27.00
42145;DHT22;27813;43.516;11.890;2022-08-03T11:15:33;41.00;27.10
42145;DHT22;27813;43.516;11.890;2022-08-03T11:19:45;41.00;26.80
42145;DHT22;27813;43.516;11.890;2022-08-03T11:24:03;41.40;26.70
42145;DHT22;27813;43.516;11.890;2022-08-03T11:28:26;41.70;26.50
42145;DHT22;27813;43.516;11.890;2022-08-03T11:37:19;41.70;26.10
42145;DHT22;27813;43.516;11.890;2022-08-03T11:41:32;41.40;26.10
42145;DHT22;27813;43.516;11.890;2022-08-03T11:50:05;41.40;26.00
42145;DHT22;27813;43.516;11.890;2022-08-03T11:54:10;41.50;25.90
42145;DHT22;27813;43.516;11.890;2022-08-03T11:58:20;41.20;26.00
42145;DHT22;27813;43.516;11.890;2022-08-03T12:03:17;41.10;26.10
42145;DHT22;27813;43.516;11.890;2022-08-03T12:07:22;41.30;25.90
42145;DHT22;27813;43.516;11.890;2022-08-03T12:11:48;41.60;26.10
42145;DHT22;27813;43.516;11.890;2022-08-03T12:16:03;41.80;25.50
42145;DHT22;27813;43.516;11.890;2022-08-03T12:20:13;41.60;25.70
42145;DHT22;27813;43.516;11.890;2022-08-03T12:24:44;41.50;25.80
42145;DHT22;27813;43.516;11.890;2022-08-03T12:28:51;41.60;25.80
42145;DHT22;27813;43.516;11.890;2022-08-03T12:32:56;41.90;25.70
42145;DHT22;27813;43.516;11.890;2022-08-03T12:37:04;41.90;25.80
42145;DHT22;27813;43.516;11.890;2022-08-03T12:41:32;42.10;25.50
42145;DHT22;27813;43.516;11.890;2022-08-03T12:45:38;42.00;25.70
42145;DHT22;27813;43.516;11.890;2022-08-03T12:49:47;41.90;25.80
42145;DHT22;27813;43.516;11.890;2022-08-03T12:53:55;41.70;25.70
42145;DHT22;27813;43.516;11.890;2022-08-03T12:58:07;41.50;26.10
42145;DHT22;27813;43.516;11.890;2022-08-03T13:02:21;41.30;26.10
42145;DHT22;27813;43.516;11.890;2022-08-03T13:06:29;41.00;26.10
42145;DHT22;27813;43.516;11.890;2022-08-03T13:10:35;40.50;26.30
42145;DHT22;27813;43.516;11.890;2022-08-03T13:14:42;40.00;26.50
42145;DHT22;27813;43.516;11.890;2022-08-03T13:18:50;39.30;27.10
42145;DHT22;27813;43.516;11.890;2022-08-03T13:22:57;39.00;27.80
42145;DHT22;27813;43.516;11.890;2022-08-03T13:27:03;38.90;27.60
42145;DHT22;27813;43.516;11.890;2022-08-03T13:31:31;38.50;27.70
42145;DHT22;27813;43.516;11.890;2022-08-03T13:35:36;38.20;28.10
42145;DHT22;27813;43.516;11.890;2022-08-03T13:39:41;37.80;28.20
42145;DHT22;27813;43.516;11.890;2022-08-03T13:44:02;37.60;28.70
42145;DHT22;27813;43.516;11.890;2022-08-03T13:48:27;37.40;28.70
42145;DHT22;27813;43.516;11.890;2022-08-03T13:52:40;37.50;28.90
42145;DHT22;27813;43.516;11.890;2022-08-03T13:56:45;37.50;29.00
42145;DHT22;27813;43.516;11.890;2022-08-03T14:00:56;37.60;29.00
42145;DHT22;27813;43.516;11.890;2022-08-03T14:05:01;37.60;28.90
42145;DHT22;27813;43.516;11.890;2022-08-03T14:09:05;37.40;28.70
42145;DHT22;27813;43.516;11.890;2022-08-03T14:13:11;37.00;28.50
42145;DHT22;27813;43.516;11.890;2022-08-03T14:17:20;36.50;29.10
42145;DHT22;27813;43.516;11.890;2022-08-03T14:21:26;36.00;29.30
42145;DHT22;27813;43.516;11.890;2022-08-03T14:25:31;35.70;29.60
42145;DHT22;27813;43.516;11.890;2022-08-03T14:29:52;35.60;29.70
42145;DHT22;27813;43.516;11.890;2022-08-03T14:33:59;35.60;29.80
42145;DHT22;27813;43.516;11.890;2022-08-03T14:38:04;35.50;29.90
42145;DHT22;27813;43.516;11.890;2022-08-03T14:42:09;35.50;30.10
42145;DHT22;27813;43.516;11.890;2022-08-03T14:46:13;35.40;30.20
42145;DHT22;27813;43.516;11.890;2022-08-03T14:50:18;35.10;30.60
42145;DHT22;27813;43.516;11.890;2022-08-03T14:54:41;35.00;31.00
42145;DHT22;27813;43.516;11.890;2022-08-03T14:58:46;35.10;31.00
42145;DHT22;27813;43.516;11.890;2022-08-03T15:02:50;35.20;30.80
42145;DHT22;27813;43.516;11.890;2022-08-03T15:06:55;35.30;30.60
42145;DHT22;27813;43.516;11.890;2022-08-03T15:11:02;35.30;30.50
42145;DHT22;27813;43.516;11.890;2022-08-03T15:15:08;35.30;30.40
42145;DHT22;27813;43.516;11.890;2022-08-03T15:19:13;35.20;30.50
42145;DHT22;27813;43.516;11.890;2022-08-03T15:23:39;35.30;30.40
42145;DHT22;27813;43.516;11.890;2022-08-03T15:27:43;35.20;30.40
42145;DHT22;27813;43.516;11.890;2022-08-03T15:32:07;35.10;30.50
42145;DHT22;27813;43.516;11.890;2022-08-03T15:36:12;35.10;30.70
42145;DHT22;27813;43.516;11.890;2022-08-03T15:40:17;35.20;30.70
42145;DHT22;27813;43.516;11.890;2022-08-03T15:44:22;35.30;30.50
42145;DHT22;27813;43.516;11.890;2022-08-03T15:48:27;35.40;30.50
42145;DHT22;27813;43.516;11.890;2022-08-03T15:52:37;35.30;30.20
42145;DHT22;27813;43.516;11.890;2022-08-03T15:56:48;35.00;30.40
42145;DHT22;27813;43.516;11.890;2022-08-03T16:00:53;34.80;30.60
42145;DHT22;27813;43.516;11.890;2022-08-03T16:04:57;34.80;30.90
42145;DHT22;27813;43.516;11.890;2022-08-03T16:09:04;34.80;30.80
42145;DHT22;27813;43.516;11.890;2022-08-03T16:13:29;34.70;30.80
42145;DHT22;27813;43.516;11.890;2022-08-03T16:17:54;34.30;30.90
42145;DHT22;27813;43.516;11.890;2022-08-03T16:21:58;34.00;31.50
42145;DHT22;27813;43.516;11.890;2022-08-03T16:26:04;33.60;31.80
42145;DHT22;27813;43.516;11.890;2022-08-03T16:30:13;33.50;32.10
42145;DHT22;27813;43.516;11.890;2022-08-03T16:34:25;33.20;32.30
42145;DHT22;27813;43.516;11.890;2022-08-03T16:38:38;33.20;32.40
42145;DHT22;27813;43.516;11.890;2022-08-03T16:42:46;33.20;32.30
42145;DHT22;27813;43.516;11.890;2022-08-03T16:46:51;33.10;32.60
42145;DHT22;27813;43.516;11.890;2022-08-03T16:50:57;33.10;32.70
42145;DHT22;27813;43.516;11.890;2022-08-03T16:55:03;33.00;32.90
42145;DHT22;27813;43.516;11.890;2022-08-03T16:59:09;32.90;33.10
42145;DHT22;27813;43.516;11.890;2022-08-03T17:03:19;32.80;33.40
42145;DHT22;27813;43.516;11.890;2022-08-03T17:07:26;32.70;33.60
42145;DHT22;27813;43.516;11.890;2022-08-03T17:11:32;32.50;33.80
42145;DHT22;27813;43.516;11.890;2022-08-03T17:15:44;32.40;34.00
42145;DHT22;27813;43.516;11.890;2022-08-03T17:20:09;32.20;34.30
42145;DHT22;27813;43.516;11.890;2022-08-03T17:24:27;32.10;34.60
42145;DHT22;27813;43.516;11.890;2022-08-03T17:28:51;32.00;34.80
42145;DHT22;27813;43.516;11.890;2022-08-03T17:33:27;31.90;35.10
42145;DHT22;27813;43.516;11.890;2022-08-03T17:37:40;31.70;35.40
42145;DHT22;27813;43.516;11.890;2022-08-03T17:42:11;31.60;35.60
42145;DHT22;27813;43.516;11.890;2022-08-03T17:46:34;31.40;35.80
42145;DHT22;27813;43.516;11.890;2022-08-03T17:50:54;31.30;36.00
42145;DHT22;27813;43.516;11.890;2022-08-03T17:55:12;31.10;36.10
42145;DHT22;27813;43.516;11.890;2022-08-03T18:00:02;31.00;36.20
42145;DHT22;27813;43.516;11.890;2022-08-03T18:04:28;30.80;36.30
42145;DHT22;27813;43.516;11.890;2022-08-03T18:08:49;30.60;36.40
42145;DHT22;27813;43.516;11.890;2022-08-03T18:13:07;30.50;36.50
42145;DHT22;27813;43.516;11.890;2022-08-03T18:17:16;30.50;36.50
42145;DHT22;27813;43.516;11.890;2022-08-03T18:21:24;30.30;36.70
42145;DHT22;27813;43.516;11.890;2022-08-03T18:25:51;30.00;37.00
42145;DHT22;27813;43.516;11.890;2022-08-03T18:30:01;29.80;37.40
42145;DHT22;27813;43.516;11.890;2022-08-03T18:34:07;29.50;37.90
42145;DHT22;27813;43.516;11.890;2022-08-03T18:38:32;29.20;38.20
42145;DHT22;27813;43.516;11.890;2022-08-03T18:42:37;29.00;38.50
42145;DHT22;27813;43.516;11.890;2022-08-03T18:52:03;28.80;38.80
42145;DHT22;27813;43.516;11.890;2022-08-03T18:56:26;28.40;39.30
42145;DHT22;27813;43.516;11.890;2022-08-03T19:00:34;28.30;39.90
42145;DHT22;27813;43.516;11.890;2022-08-03T19:05:06;28.10;40.00
42145;DHT22;27813;43.516;11.890;2022-08-03T19:09:36;28.00;40.20
42145;DHT22;27813;43.516;11.890;2022-08-03T19:13:48;28.00;40.30
42145;DHT22;27813;43.516;11.890;2022-08-03T19:17:55;27.80;40.40
42145;DHT22;27813;43.516;11.890;2022-08-03T19:22:03;27.50;40.60
42145;DHT22;27813;43.516;11.890;2022-08-03T19:26:12;27.40;40.80
42145;DHT22;27813;43.516;11.890;2022-08-03T19:30:37;27.20;41.00
42145;DHT22;27813;43.516;11.890;2022-08-03T19:34:58;26.90;41.30
42145;DHT22;27813;43.516;11.890;2022-08-03T19:39:03;26.70;41.70
42145;DHT22;27813;43.516;11.890;2022-08-03T19:48:04;26.50;42.10
42145;DHT22;27813;43.516;11.890;2022-08-03T19:52:14;26.30;42.30
42145;DHT22;27813;43.516;11.890;2022-08-03T19:56:27;26.00;42.80
42145;DHT22;27813;43.516;11.890;2022-08-03T20:00:35;25.80;43.10
42145;DHT22;27813;43.516;11.890;2022-08-03T20:04:41;25.70;43.10
42145;DHT22;27813;43.516;11.890;2022-08-03T20:08:48;25.60;43.30
42145;DHT22;27813;43.516;11.890;2022-08-03T20:12:54;25.40;43.50
42145;DHT22;27813;43.516;11.890;2022-08-03T20:16:59;25.20;43.80
42145;DHT22;27813;43.516;11.890;2022-08-03T20:21:09;25.10;44.00
42145;DHT22;27813;43.516;11.890;2022-08-03T20:25:28;24.90;44.30
42145;DHT22;27813;43.516;11.890;2022-08-03T20:29:44;24.70;44.70
42145;DHT22;27813;43.516;11.890;2022-08-03T20:34:10;24.50;45.00
42145;DHT22;27813;43.516;11.890;2022-08-03T20:38:21;24.30;45.60
42145;DHT22;27813;43.516;11.890;2022-08-03T20:42:30;24.10;46.10
42145;DHT22;27813;43.516;11.890;2022-08-03T20:46:36;24.00;46.30
42145;DHT22;27813;43.516;11.890;2022-08-03T20:51:03;23.80;46.70
42145;DHT22;27813;43.516;11.890;2022-08-03T20:55:22;23.70;47.00
42145;DHT22;27813;43.516;11.890;2022-08-03T20:59:49;23.60;47.40
42145;DHT22;27813;43.516;11.890;2022-08-03T21:03:54;23.40;47.60
42145;DHT22;27813;43.516;11.890;2022-08-03T21:08:03;23.20;48.00
42145;DHT22;27813;43.516;11.890;2022-08-03T21:12:14;23.00;48.40
42145;DHT22;27813;43.516;11.890;2022-08-03T21:16:22;22.90;48.90
42145;DHT22;27813;43.516;11.890;2022-08-03T21:20:32;22.80;49.30
42145;DHT22;27813;43.516;11.890;2022-08-03T21:24:39;22.60;49.80
42145;DHT22;27813;43.516;11.890;2022-08-03T21:28:49;22.50;50.10
42145;DHT22;27813;43.516;11.890;2022-08-03T21:32:55;22.40;50.50
42145;DHT22;27813;43.516;11.890;2022-08-03T21:37:02;22.10;51.10
42145;DHT22;27813;43.516;11.890;2022-08-03T21:41:07;21.90;51.60
42145;DHT22;27813;43.516;11.890;2022-08-03T21:45:13;21.70;52.20
42145;DHT22;27813;43.516;11.890;2022-08-03T21:49:21;21.60;52.60
42145;DHT22;27813;43.516;11.890;2022-08-03T21:53:51;21.50;53.00
42145;DHT22;27813;43.516;11.890;2022-08-03T21:58:08;21.40;53.30
42145;DHT22;27813;43.516;11.890;2022-08-03T22:02:14;21.30;53.40
42145;DHT22;27813;43.516;11.890;2022-08-03T22:06:25;21.20;53.40
42145;DHT22;27813;43.516;11.890;2022-08-03T22:10:30;21.10;53.50
42145;DHT22;27813;43.516;11.890;2022-08-03T22:14:35;21.00;53.80
42145;DHT22;27813;43.516;11.890;2022-08-03T22:18:44;20.90;54.00
42145;DHT22;27813;43.516;11.890;2022-08-03T22:22:53;20.80;54.20
42145;DHT22;27813;43.516;11.890;2022-08-03T22:27:00;20.60;54.60
42145;DHT22;27813;43.516;11.890;2022-08-03T22:31:25;20.60;54.70
42145;DHT22;27813;43.516;11.890;2022-08-03T22:35:56;20.50;54.80
42145;DHT22;27813;43.516;11.890;2022-08-03T22:40:10;20.40;55.10
42145;DHT22;27813;43.516;11.890;2022-08-03T22:44:15;20.30;55.30
42145;DHT22;27813;43.516;11.890;2022-08-03T22:48:20;20.20;55.50
42145;DHT22;27813;43.516;11.890;2022-08-03T22:52:25;20.10;55.90
42145;DHT22;27813;43.516;11.890;2022-08-03T22:56:31;20.10;55.80
42145;DHT22;27813;43.516;11.890;2022-08-03T23:00:43;20.00;56.00
42145;DHT22;27813;43.516;11.890;2022-08-03T23:04:57;20.00;56.50
42145;DHT22;27813;43.516;11.890;2022-08-03T23:09:07;19.90;56.80
42145;DHT22;27813;43.516;11.890;2022-08-03T23:13:13;19.80;56.90
42145;DHT22;27813;43.516;11.890;2022-08-03T23:17:22;19.70;57.00
42145;DHT22;27813;43.516;11.890;2022-08-03T23:21:27;19.60;57.30
42145;DHT22;27813;43.516;11.890;2022-08-03T23:25:52;19.50;58.10
42145;DHT22;27813;43.516;11.890;2022-08-03T23:29:58;19.40;58.40
